Time;durP1;ratioP1;P1;durP2;ratioP2;P2;SDS_P1;SDS_P2;PMS_P1;PMS_P2;Temp;Humidity;BMP_temperature;BMP_pressure;BME280_temperature;BME280_humidity;BME280_pressure;Samples;Min_cycle;Max_cycle;Signal;HPM_P1;HPM_P2
2021/07/25 00:00:37;;;;;;;31.27;19.67;;;18.50;99.90;;;;;;5030899;28;20483;-59
2021/07/25 00:03:04;;;;;;;36.70;22.08;;;18.50;99.90;;;;;;5031745;28;20126;-61
2021/07/25 00:05:30;;;;;;;36.35;21.33;;;18.50;99.90;;;;;;5032388;28;20422;-60
2021/07/25 00:07:55;;;;;;;29.60;18.80;;;18.40;99.90;;;;;;5032080;28;20033;-61
2021/07/25 00:10:21;;;;;;;31.45;19.25;;;18.40;99.90;;;;;;5032047;28;20076;-60
2021/07/25 00:12:47;;;;;;;37.08;22.25;;;18.40;99.90;;;;;;5032465;28;20086;-59
2021/07/25 00:15:12;;;;;;;36.80;19.30;;;18.40;99.90;;;;;;5029450;28;20030;-60
2021/07/25 00:17:38;;;;;;;40.60;23.58;;;18.40;99.90;;;;;;5032217;28;20034;-61
2021/07/25 00:20:04;;;;;;;44.15;23.85;;;18.40;99.90;;;;;;5031287;28;20032;-61
2021/07/25 00:22:30;;;;;;;36.88;22.45;;;18.40;99.90;;;;;;5032016;28;20100;-60
2021/07/25 00:25:09;;;;;;;35.45;20.48;;;18.40;99.90;;;;;;5030197;28;20133;-60
2021/07/25 00:27:39;;;;;;;34.78;19.98;;;18.50;99.90;;;;;;5031544;28;20137;-61
2021/07/25 00:30:06;;;;;;;30.80;19.92;;;18.50;99.90;;;;;;5029913;28;20029;-60
2021/07/25 00:32:32;;;;;;;36.72;20.50;;;18.50;99.90;;;;;;5031375;28;20025;-59
2021/07/25 00:34:58;;;;;;;39.55;19.95;;;18.50;99.90;;;;;;5030751;28;20137;-59
2021/07/25 00:37:24;;;;;;;38.00;23.65;;;18.50;99.90;;;;;;5032033;28;20112;-60
2021/07/25 00:39:49;;;;;;;34.47;21.38;;;18.50;99.90;;;;;;5031016;28;20036;-60
2021/07/25 00:42:15;;;;;;;34.83;20.75;;;18.60;99.90;;;;;;5031961;28;20021;-59
2021/07/25 00:44:41;;;;;;;35.15;20.73;;;18.60;99.90;;;;;;5030501;28;20121;-60
2021/07/25 00:47:07;;;;;;;36.05;21.73;;;18.60;99.90;;;;;;5031525;28;20030;-60
2021/07/25 00:49:35;;;;;;;36.13;21.60;;;18.60;99.90;;;;;;5030909;28;20026;-60
2021/07/25 00:52:04;;;;;;;42.97;21.42;;;18.60;99.90;;;;;;5031787;28;20434;-60
2021/07/25 00:54:29;;;;;;;38.00;22.48;;;18.60;99.90;;;;;;5030629;28;20028;-59
2021/07/25 00:56:55;;;;;;;39.25;22.27;;;18.60;99.90;;;;;;5031134;28;20033;-60
2021/07/25 00:59:21;;;;;;;40.70;22.60;;;18.60;99.90;;;;;;5030421;28;20499;-60
2021/07/25 01:01:49;;;;;;;44.17;21.48;;;18.60;99.90;;;;;;5030844;28;20033;-60
2021/07/25 01:04:42;;;;;;;34.78;20.48;;;18.70;99.90;;;;;;5030436;28;20026;-60
2021/07/25 01:07:33;;;;;;;42.55;20.10;;;18.70;99.90;;;;;;5030927;28;20045;-60
2021/07/25 01:10:25;;;;;;;38.88;21.10;;;18.70;99.90;;;;;;5021008;28;20396;-59
2021/07/25 01:13:01;;;;;;;36.58;21.25;;;18.70;99.90;;;;;;5024348;28;20057;-60
2021/07/25 01:15:31;;;;;;;43.65;21.23;;;18.70;99.90;;;;;;5029000;28;20055;-59
2021/07/25 01:17:59;;;;;;;42.22;23.13;;;18.70;99.90;;;;;;5031274;28;20480;-60
2021/07/25 01:20:25;;;;;;;41.83;22.30;;;18.70;99.90;;;;;;5030323;28;20025;-60
2021/07/25 01:22:54;;;;;;;50.90;22.27;;;18.60;99.90;;;;;;5030864;28;20034;-60
2021/07/25 01:25:22;;;;;;;47.53;22.98;;;18.60;99.90;;;;;;5029955;28;20037;-59
2021/07/25 01:27:54;;;;;;;41.33;22.27;;;18.60;99.90;;;;;;5030997;28;20046;-60
2021/07/25 01:30:23;;;;;;;40.35;22.35;;;18.60;99.90;;;;;;5029058;28;20468;-60
2021/07/25 01:32:51;;;;;;;43.63;22.83;;;18.50;99.90;;;;;;5030591;28;20049;-60
2021/07/25 01:35:17;;;;;;;47.00;22.60;;;18.60;99.90;;;;;;5029845;28;20056;-59
2021/07/25 01:37:44;;;;;;;38.28;20.40;;;18.60;99.90;;;;;;5031028;28;20037;-61
2021/07/25 01:40:20;;;;;;;40.83;21.15;;;18.60;99.90;;;;;;5030348;28;20029;-59
2021/07/25 01:42:45;;;;;;;36.95;21.00;;;18.60;99.90;;;;;;5030459;28;20033;-61
2021/07/25 01:45:12;;;;;;;42.53;21.00;;;18.60;99.90;;;;;;5030099;28;20034;-60
2021/07/25 01:47:38;;;;;;;40.40;20.98;;;18.60;99.90;;;;;;5030402;28;20065;-61
2021/07/25 01:50:05;;;;;;;37.47;20.27;;;18.60;99.90;;;;;;5030222;28;20037;-60
2021/07/25 01:52:31;;;;;;;44.95;22.75;;;18.60;99.90;;;;;;5030623;28;20459;-60
2021/07/25 01:54:57;;;;;;;41.47;22.08;;;18.50;99.90;;;;;;5029517;28;20033;-61
2021/07/25 01:57:23;;;;;;;51.83;24.13;;;18.50;99.90;;;;;;5031096;28;20026;-59
2021/07/25 01:59:48;;;;;;;48.95;22.80;;;18.50;99.90;;;;;;5029696;28;20058;-59
2021/07/25 02:02:14;;;;;;;47.72;23.10;;;18.40;99.90;;;;;;5030998;28;20083;-60
2021/07/25 02:04:40;;;;;;;49.80;23.77;;;18.50;99.90;;;;;;5029879;28;20080;-60
2021/07/25 02:07:06;;;;;;;42.88;22.58;;;18.40;99.90;;;;;;5030151;28;20041;-60
2021/07/25 02:09:36;;;;;;;53.67;24.75;;;18.40;99.90;;;;;;5030760;28;20057;-59
2021/07/25 02:12:09;;;;;;;57.03;25.30;;;18.40;99.90;;;;;;5031738;28;20069;-61
2021/07/25 02:14:37;;;;;;;56.28;24.02;;;18.40;99.90;;;;;;5033389;28;20103;-60
2021/07/25 02:17:05;;;;;;;65.65;25.83;;;18.40;99.90;;;;;;5034391;28;20523;-60
2021/07/25 02:19:31;;;;;;;53.00;25.27;;;18.30;99.90;;;;;;5020300;28;20368;-60
2021/07/25 02:21:57;;;;;;;60.00;26.10;;;18.30;99.90;;;;;;5033926;28;20479;-60
2021/07/25 02:24:23;;;;;;;53.03;25.67;;;18.30;99.90;;;;;;5032874;28;20059;-59
2021/07/25 02:26:52;;;;;;;58.35;25.55;;;18.30;99.90;;;;;;5033698;28;20053;-60
2021/07/25 02:29:18;;;;;;;57.97;25.10;;;18.30;99.90;;;;;;5032843;28;20132;-59
2021/07/25 02:31:44;;;;;;;57.88;23.70;;;18.20;99.90;;;;;;5034239;28;20101;-59
2021/07/25 02:34:10;;;;;;;59.60;24.35;;;18.10;99.90;;;;;;5033107;28;20029;-60
2021/07/25 02:36:36;;;;;;;56.53;24.10;;;18.10;99.90;;;;;;5045093;28;20053;-60
2021/07/25 02:39:02;;;;;;;54.20;22.92;;;18.10;99.90;;;;;;5033266;28;20502;-60
2021/07/25 02:41:27;;;;;;;53.15;23.20;;;18.00;99.90;;;;;;5033595;28;20037;-61
2021/07/25 02:43:53;;;;;;;51.95;21.48;;;18.10;99.90;;;;;;5031255;28;20529;-59
2021/07/25 02:46:19;;;;;;;49.95;20.95;;;18.10;99.90;;;;;;5033277;28;20495;-59
2021/07/25 02:48:44;;;;;;;49.72;21.40;;;18.10;99.90;;;;;;5033313;28;20404;-61
2021/07/25 02:51:10;;;;;;;46.70;21.63;;;18.10;99.90;;;;;;5032736;28;20383;-60
2021/07/25 02:53:36;;;;;;;53.35;21.63;;;18.10;99.90;;;;;;5033400;28;20490;-61
2021/07/25 02:56:02;;;;;;;59.80;21.23;;;18.10;99.90;;;;;;5033289;28;20469;-60
2021/07/25 02:58:27;;;;;;;51.53;20.33;;;18.10;99.90;;;;;;5033523;28;20033;-60
2021/07/25 03:00:53;;;;;;;58.85;20.85;;;18.10;99.90;;;;;;5032545;28;20029;-60
2021/07/25 03:03:19;;;;;;;56.08;21.02;;;18.10;99.90;;;;;;5033016;28;20083;-61
2021/07/25 03:05:44;;;;;;;53.75;21.25;;;18.10;99.90;;;;;;5032634;28;20332;-61
2021/07/25 03:08:10;;;;;;;53.80;22.08;;;18.10;99.90;;;;;;5033864;28;20037;-59
2021/07/25 03:10:36;;;;;;;55.72;21.02;;;18.10;99.90;;;;;;5032231;28;20034;-59
2021/07/25 03:13:01;;;;;;;54.00;22.15;;;18.10;99.90;;;;;;5033467;28;20087;-60
2021/07/25 03:15:27;;;;;;;54.03;21.20;;;18.10;99.90;;;;;;5032080;28;20132;-60
2021/07/25 03:17:53;;;;;;;50.83;21.42;;;18.10;99.90;;;;;;5033154;28;20025;-59
2021/07/25 03:20:19;;;;;;;49.92;20.77;;;18.00;99.90;;;;;;5032011;28;20486;-61
2021/07/25 03:22:45;;;;;;;42.70;20.85;;;18.10;99.90;;;;;;5032540;28;20024;-60
2021/07/25 03:25:11;;;;;;;51.30;21.13;;;18.10;99.90;;;;;;5032620;28;20043;-59
2021/07/25 03:27:37;;;;;;;59.40;21.10;;;18.00;99.90;;;;;;5032885;28;20060;-60
2021/07/25 03:30:04;;;;;;;47.70;21.40;;;18.00;99.90;;;;;;5032095;28;20386;-59
2021/07/25 03:32:30;;;;;;;45.67;20.98;;;18.00;99.90;;;;;;5029120;28;20046;-59
2021/07/25 03:34:55;;;;;;;48.53;20.80;;;18.00;99.90;;;;;;5031722;28;20113;-60
2021/07/25 03:37:22;;;;;;;43.95;20.17;;;17.90;99.90;;;;;;5033058;28;20046;-58
2021/07/25 03:39:50;;;;;;;44.97;21.10;;;18.00;99.90;;;;;;5031514;28;20037;-59
2021/07/25 03:42:16;;;;;;;42.70;20.88;;;18.00;99.90;;;;;;5032537;28;20033;-60
2021/07/25 03:44:42;;;;;;;39.25;21.17;;;18.00;99.90;;;;;;5031967;28;20029;-58
2021/07/25 03:47:10;;;;;;;44.05;21.02;;;18.00;99.90;;;;;;5032374;28;20503;-58
2021/07/25 03:49:38;;;;;;;47.30;21.83;;;18.00;99.90;;;;;;5031912;28;20106;-59
2021/07/25 03:52:04;;;;;;;43.85;20.95;;;18.00;99.90;;;;;;5032156;28;20468;-59
2021/07/25 03:54:30;;;;;;;43.30;21.50;;;18.00;99.90;;;;;;5032026;28;20399;-60
2021/07/25 03:56:56;;;;;;;44.13;21.45;;;18.00;99.90;;;;;;5032277;28;20025;-59
2021/07/25 03:59:22;;;;;;;40.83;21.50;;;18.00;99.90;;;;;;5031402;28;20056;-61
2021/07/25 04:01:47;;;;;;;37.88;21.27;;;18.00;99.90;;;;;;5031141;28;20030;-60
2021/07/25 04:04:13;;;;;;;35.42;19.85;;;17.90;99.90;;;;;;5032126;28;20032;-59
2021/07/25 04:06:39;;;;;;;35.58;19.27;;;17.90;99.90;;;;;;5031419;28;20026;-59
2021/07/25 04:09:04;;;;;;;32.97;18.98;;;18.00;99.90;;;;;;5032544;28;20065;-59
2021/07/25 04:11:30;;;;;;;32.15;17.67;;;17.90;99.90;;;;;;5031450;28;20029;-59
2021/07/25 04:13:56;;;;;;;32.55;18.75;;;17.90;99.90;;;;;;5032003;28;20122;-59
2021/07/25 04:16:21;;;;;;;34.70;18.85;;;18.00;99.90;;;;;;5031549;28;20037;-60
2021/07/25 04:18:47;;;;;;;34.00;18.23;;;18.00;99.90;;;;;;5031867;28;20686;-61
2021/07/25 04:21:13;;;;;;;27.00;16.65;;;18.00;99.90;;;;;;5030942;28;20050;-59
2021/07/25 04:23:42;;;;;;;24.92;15.93;;;17.90;99.90;;;;;;5031770;28;20048;-59
2021/07/25 04:26:08;;;;;;;24.88;15.65;;;17.90;99.90;;;;;;5031373;28;20032;-60
2021/07/25 04:28:35;;;;;;;28.50;16.20;;;17.90;99.90;;;;;;5031743;28;20057;-59
2021/07/25 04:31:01;;;;;;;26.90;17.02;;;17.80;99.90;;;;;;5030503;28;20029;-60
2021/07/25 04:33:27;;;;;;;31.10;17.25;;;17.90;99.90;;;;;;5030173;28;20026;-58
2021/07/25 04:35:54;;;;;;;32.05;18.80;;;17.80;99.90;;;;;;5030777;28;20490;-59
2021/07/25 04:38:20;;;;;;;36.80;19.15;;;17.80;99.90;;;;;;5032252;28;20037;-58
2021/07/25 04:40:55;;;;;;;32.15;19.20;;;17.80;99.90;;;;;;5030637;28;20037;-61
2021/07/25 04:43:24;;;;;;;36.15;19.38;;;17.80;99.90;;;;;;5031877;28;20033;-60
2021/07/25 04:46:00;;;;;;;37.00;19.40;;;17.80;99.90;;;;;;5030716;28;20025;-59
2021/07/25 04:48:45;;;;;;;40.90;21.15;;;17.70;99.90;;;;;;5031587;28;20835;-60
2021/07/25 04:51:11;;;;;;;40.03;21.92;;;17.80;99.90;;;;;;5030094;28;20501;-60
2021/07/25 04:53:39;;;;;;;46.55;22.00;;;17.70;99.90;;;;;;5031337;28;20029;-61
2021/07/25 04:56:07;;;;;;;44.85;23.38;;;17.70;99.90;;;;;;5030725;28;20033;-59
2021/07/25 04:58:50;;;;;;;50.22;24.13;;;17.70;99.90;;;;;;5031642;28;20033;-59
2021/07/25 05:01:30;;;;;;;41.15;22.60;;;17.70;99.90;;;;;;5030151;28;20399;-59
2021/07/25 05:03:56;;;;;;;46.65;24.27;;;17.70;99.90;;;;;;5031185;28;20036;-59
2021/07/25 05:06:23;;;;;;;48.85;24.40;;;17.70;99.90;;;;;;5030530;28;20057;-59
2021/07/25 05:08:49;;;;;;;50.53;23.95;;;17.70;99.90;;;;;;5031126;28;20033;-59
2021/07/25 05:11:26;;;;;;;47.70;23.58;;;17.70;99.90;;;;;;5030415;28;20036;-60
2021/07/25 05:13:55;;;;;;;47.20;23.83;;;17.70;99.90;;;;;;5030958;28;20080;-59
2021/07/25 05:16:28;;;;;;;47.15;23.80;;;17.70;99.90;;;;;;5030232;28;20187;-59
2021/07/25 05:19:19;;;;;;;39.78;23.00;;;17.70;99.90;;;;;;5030849;28;20730;-60
2021/07/25 05:21:52;;;;;;;39.22;21.25;;;17.70;99.90;;;;;;5030388;28;20053;-59
2021/07/25 05:24:25;;;;;;;38.88;21.95;;;17.70;99.90;;;;;;5018814;28;20033;-59
2021/07/25 05:26:53;;;;;;;39.30;20.63;;;17.80;99.90;;;;;;5030216;28;20050;-59
2021/07/25 05:29:20;;;;;;;38.15;20.92;;;17.80;99.90;;;;;;5021639;28;20030;-58
2021/07/25 05:31:48;;;;;;;38.80;20.92;;;17.90;99.90;;;;;;5029529;28;20025;-60
2021/07/25 05:34:14;;;;;;;31.70;19.35;;;17.90;99.90;;;;;;5031210;28;20025;-59
2021/07/25 05:36:39;;;;;;;34.75;19.90;;;17.90;99.90;;;;;;5040473;28;20131;-59
2021/07/25 05:39:05;;;;;;;31.45;19.88;;;17.90;99.90;;;;;;5032585;28;20033;-60
2021/07/25 05:41:31;;;;;;;36.05;19.42;;;17.90;99.90;;;;;;5030183;28;20033;-59
2021/07/25 05:43:56;;;;;;;35.92;19.58;;;17.90;99.90;;;;;;5032873;28;20044;-59
2021/07/25 05:46:22;;;;;;;40.80;20.77;;;17.90;99.90;;;;;;5034236;28;20025;-58
2021/07/25 05:48:48;;;;;;;34.67;20.25;;;17.90;99.90;;;;;;5035018;28;20042;-58
2021/07/25 05:51:14;;;;;;;37.15;20.25;;;17.90;99.90;;;;;;5033646;28;20484;-60
2021/07/25 05:53:40;;;;;;;44.85;22.10;;;17.90;99.90;;;;;;5035091;28;20036;-60
2021/07/25 05:56:05;;;;;;;39.63;21.67;;;17.90;99.90;;;;;;5034054;28;20040;-61
2021/07/25 05:58:31;;;;;;;45.50;23.95;;;17.90;99.90;;;;;;5034891;28;20048;-61
2021/07/25 06:00:57;;;;;;;42.78;23.35;;;17.90;99.90;;;;;;5033702;28;20033;-60
2021/07/25 06:03:22;;;;;;;48.28;23.92;;;18.00;99.90;;;;;;5034492;28;20034;-60
2021/07/25 06:05:48;;;;;;;47.42;24.63;;;18.00;99.90;;;;;;5032772;28;20553;-59
2021/07/25 06:08:14;;;;;;;45.15;23.35;;;18.00;99.90;;;;;;5033807;28;20148;-59
2021/07/25 06:10:42;;;;;;;48.78;23.27;;;18.00;99.90;;;;;;5033614;28;20135;-60
2021/07/25 06:13:08;;;;;;;41.58;23.00;;;18.00;99.90;;;;;;5034299;28;20064;-59
2021/07/25 06:15:34;;;;;;;34.67;20.15;;;18.00;99.90;;;;;;5033527;28;20511;-60
2021/07/25 06:18:01;;;;;;;36.42;20.65;;;18.10;99.90;;;;;;5034478;28;20048;-59
2021/07/25 06:20:28;;;;;;;34.70;19.35;;;18.10;99.90;;;;;;5033047;28;20471;-59
2021/07/25 06:22:55;;;;;;;35.72;20.33;;;18.10;99.90;;;;;;5034431;28;20092;-58
2021/07/25 06:25:23;;;;;;;31.50;18.75;;;18.20;99.90;;;;;;5033586;28;20475;-59
2021/07/25 06:27:54;;;;;;;31.50;18.33;;;18.20;99.90;;;;;;5033084;28;20080;-59
2021/07/25 06:30:21;;;;;;;30.13;16.92;;;18.20;99.90;;;;;;5033658;28;20080;-59
2021/07/25 06:32:59;;;;;;;18.30;12.45;;;18.20;99.90;;;;;;5033195;28;20033;-59
2021/07/25 06:35:29;;;;;;;19.50;12.35;;;18.20;99.90;;;;;;5033145;28;20029;-59
2021/07/25 06:37:57;;;;;;;16.27;10.80;;;18.20;99.90;;;;;;5021525;28;20039;-59
2021/07/25 06:40:25;;;;;;;19.25;11.35;;;18.10;99.90;;;;;;5034081;28;20029;-59
2021/07/25 06:42:51;;;;;;;18.52;12.40;;;18.10;99.90;;;;;;5033138;28;20044;-59
2021/07/25 06:45:17;;;;;;;21.63;11.65;;;18.10;99.90;;;;;;5033713;28;20476;-58
2021/07/25 06:47:46;;;;;;;18.15;13.50;;;18.20;99.90;;;;;;5031527;28;20041;-59
2021/07/25 06:50:12;;;;;;;22.17;14.02;;;18.10;99.90;;;;;;5034158;28;20116;-63
2021/07/25 06:52:40;;;;;;;22.60;14.25;;;18.10;99.90;;;;;;5032599;28;20116;-60
2021/07/25 06:55:07;;;;;;;16.23;10.93;;;18.20;99.90;;;;;;5032880;28;20026;-59
2021/07/25 06:57:33;;;;;;;17.70;11.43;;;18.30;99.90;;;;;;5030345;28;20044;-59
2021/07/25 06:59:59;;;;;;;20.48;13.02;;;18.30;99.90;;;;;;5033911;28;20041;-58
2021/07/25 07:02:25;;;;;;;18.33;12.70;;;18.30;99.90;;;;;;5032630;28;20479;-58
2021/07/25 07:04:53;;;;;;;19.92;12.80;;;18.20;99.90;;;;;;5033589;28;20033;-58
2021/07/25 07:07:18;;;;;;;21.90;14.27;;;18.30;99.90;;;;;;5031749;28;20018;-58
2021/07/25 07:09:44;;;;;;;26.33;13.98;;;18.30;99.90;;;;;;5032725;28;20452;-59
2021/07/25 07:12:10;;;;;;;23.75;15.05;;;18.40;99.90;;;;;;5032429;28;20021;-60
2021/07/25 07:14:36;;;;;;;25.85;15.45;;;18.40;99.90;;;;;;5032226;28;20480;-59
2021/07/25 07:17:01;;;;;;;24.35;14.65;;;18.30;99.90;;;;;;5031807;28;20105;-60
2021/07/25 07:19:27;;;;;;;23.50;14.95;;;18.40;99.90;;;;;;5033480;28;20466;-60
2021/07/25 07:21:53;;;;;;;27.13;15.40;;;18.30;99.90;;;;;;5031787;28;20108;-59
2021/07/25 07:24:18;;;;;;;26.02;14.65;;;18.30;99.90;;;;;;5032449;28;20036;-59
2021/07/25 07:26:44;;;;;;;23.90;14.88;;;18.40;99.90;;;;;;5032014;28;20124;-58
2021/07/25 07:29:10;;;;;;;25.17;14.32;;;18.50;99.90;;;;;;5031891;28;20116;-60
2021/07/25 07:31:35;;;;;;;23.50;14.25;;;18.50;99.90;;;;;;5032226;28;20025;-59
2021/07/25 07:34:01;;;;;;;23.30;13.80;;;18.60;99.90;;;;;;5032889;28;20025;-59
2021/07/25 07:36:26;;;;;;;20.42;13.20;;;18.60;99.90;;;;;;5032128;28;20041;-59
2021/07/25 07:38:52;;;;;;;26.55;14.48;;;18.60;99.90;;;;;;5032322;28;20387;-60
2021/07/25 07:41:18;;;;;;;22.65;14.52;;;18.70;99.90;;;;;;5031414;28;20387;-58
2021/07/25 07:43:43;;;;;;;22.95;14.35;;;18.60;99.90;;;;;;5019237;28;20077;-59
2021/07/25 07:46:09;;;;;;;24.08;14.63;;;18.60;99.90;;;;;;5025604;28;20421;-57
2021/07/25 07:48:35;;;;;;;30.67;15.98;;;18.60;99.90;;;;;;5032789;28;20479;-57
2021/07/25 07:51:00;;;;;;;26.48;15.68;;;18.70;99.90;;;;;;5032032;28;20045;-59
2021/07/25 07:53:26;;;;;;;28.90;16.48;;;18.60;99.90;;;;;;5032503;28;20467;-60
2021/07/25 07:55:52;;;;;;;29.75;17.00;;;18.70;99.90;;;;;;5032382;28;20021;-58
2021/07/25 07:58:17;;;;;;;31.90;17.52;;;18.70;99.90;;;;;;5030874;28;20033;-59
2021/07/25 08:00:44;;;;;;;31.67;17.80;;;18.70;99.90;;;;;;5020769;28;20026;-59
2021/07/25 08:03:10;;;;;;;33.80;16.80;;;18.70;99.90;;;;;;5027028;28;20038;-60
2021/07/25 08:05:36;;;;;;;37.25;17.20;;;18.70;99.90;;;;;;5032000;28;20116;-59
2021/07/25 08:08:01;;;;;;;31.60;16.17;;;18.80;99.90;;;;;;5030703;28;20075;-60
2021/07/25 08:10:27;;;;;;;28.15;16.95;;;18.70;99.90;;;;;;5031870;28;20033;-58
2021/07/25 08:12:53;;;;;;;29.40;16.63;;;18.60;99.90;;;;;;5031504;28;20039;-60
2021/07/25 08:15:19;;;;;;;30.80;17.02;;;18.50;99.90;;;;;;5031519;28;20442;-59
2021/07/25 08:17:44;;;;;;;30.27;17.13;;;18.60;99.90;;;;;;5030847;28;20475;-60
2021/07/25 08:20:11;;;;;;;33.72;18.23;;;18.60;99.90;;;;;;5031595;28;20029;-60
2021/07/25 08:22:37;;;;;;;33.63;16.40;;;18.70;99.90;;;;;;5031175;28;20041;-59
2021/07/25 08:25:06;;;;;;;30.05;16.55;;;18.70;99.90;;;;;;5031817;28;20033;-60
2021/07/25 08:27:33;;;;;;;33.42;16.60;;;18.80;99.90;;;;;;5031237;28;20077;-59
2021/07/25 08:29:58;;;;;;;28.67;15.80;;;18.80;99.90;;;;;;5031618;28;20026;-59
2021/07/25 08:32:24;;;;;;;28.83;16.65;;;18.80;99.90;;;;;;5029616;28;20080;-58
2021/07/25 08:34:50;;;;;;;26.70;16.23;;;18.90;99.90;;;;;;5031877;28;20033;-60
2021/07/25 08:37:15;;;;;;;29.88;15.82;;;18.90;99.90;;;;;;5034488;28;20080;-59
2021/07/25 08:39:41;;;;;;;24.45;15.02;;;19.10;99.90;;;;;;5043889;28;20451;-60
2021/07/25 08:42:12;;;;;;;28.50;15.25;;;19.10;99.90;;;;;;5030614;28;20072;-61
2021/07/25 08:44:50;;;;;;;25.52;14.65;;;19.20;99.90;;;;;;5029087;28;20033;-60
2021/07/25 08:47:18;;;;;;;27.80;15.20;;;19.10;99.90;;;;;;5030761;28;20128;-61
2021/07/25 08:50:08;;;;;;;25.52;14.43;;;19.10;99.90;;;;;;5031267;28;20029;-61
2021/07/25 08:52:40;;;;;;;24.15;14.20;;;19.20;99.90;;;;;;5030520;28;20549;-59
2021/07/25 08:55:09;;;;;;;25.73;14.73;;;19.20;99.90;;;;;;5031531;28;20376;-59
2021/07/25 08:57:38;;;;;;;30.95;15.45;;;19.20;99.90;;;;;;5030635;28;20506;-61
2021/07/25 09:00:08;;;;;;;24.70;14.95;;;19.20;99.90;;;;;;5029950;28;20110;-60
2021/07/25 09:02:35;;;;;;;28.25;15.05;;;19.40;99.90;;;;;;5030818;28;20083;-59
2021/07/25 09:05:01;;;;;;;25.25;15.40;;;19.50;99.90;;;;;;5031345;28;20032;-59
2021/07/25 09:07:31;;;;;;;26.40;14.70;;;19.60;99.90;;;;;;5030792;28;20038;-60
2021/07/25 09:10:08;;;;;;;26.27;14.98;;;19.60;99.90;;;;;;5030317;28;20033;-61
2021/07/25 09:12:35;;;;;;;27.65;15.80;;;19.70;99.90;;;;;;5030277;28;20033;-59
2021/07/25 09:15:13;;;;;;;33.78;15.63;;;19.80;99.90;;;;;;5030829;28;20045;-59
2021/07/25 09:17:40;;;;;;;24.20;14.02;;;19.90;99.90;;;;;;5030597;28;20040;-62
2021/07/25 09:20:17;;;;;;;23.48;13.43;;;19.90;99.90;;;;;;5030403;28;20057;-58
2021/07/25 09:22:49;;;;;;;26.50;13.05;;;20.00;99.90;;;;;;5030674;28;20032;-60
2021/07/25 09:25:21;;;;;;;21.52;13.55;;;20.10;99.90;;;;;;5029485;28;20134;-61
2021/07/25 09:27:48;;;;;;;31.92;20.40;;;20.20;99.90;;;;;;5022406;28;20412;-61
2021/07/25 09:30:18;;;;;;;23.20;13.98;;;20.20;99.90;;;;;;5028314;28;20045;-60
2021/07/25 09:32:45;;;;;;;24.58;14.45;;;20.30;99.90;;;;;;5016997;28;20042;-61
2021/07/25 09:35:36;;;;;;;24.77;13.35;;;20.40;99.90;;;;;;5030790;28;20091;-61
2021/07/25 09:38:04;;;;;;;24.33;13.38;;;20.50;99.90;;;;;;5030291;28;20405;-60
2021/07/25 09:40:33;;;;;;;25.38;13.82;;;20.70;99.90;;;;;;5030317;28;20037;-61
2021/07/25 09:43:16;;;;;;;24.65;13.88;;;20.80;99.90;;;;;;5030362;28;20452;-60
2021/07/25 09:45:54;;;;;;;20.88;13.75;;;20.90;99.90;;;;;;5030632;28;20470;-60
2021/07/25 09:48:37;;;;;;;20.17;13.63;;;21.00;99.90;;;;;;5029846;28;20032;-61
2021/07/25 09:51:21;;;;;;;26.23;13.75;;;21.00;99.90;;;;;;5030659;28;20075;-60
2021/07/25 09:53:53;;;;;;;28.83;15.82;;;21.00;99.90;;;;;;5018107;28;20395;-61
2021/07/25 09:56:26;;;;;;;23.45;14.27;;;20.90;99.90;;;;;;5029918;28;20357;-60
2021/07/25 09:58:54;;;;;;;23.48;14.38;;;21.00;99.90;;;;;;5029644;28;20029;-58
2021/07/25 10:01:39;;;;;;;31.65;16.08;;;21.20;99.90;;;;;;5029250;28;20029;-59
2021/07/25 10:04:17;;;;;;;32.03;18.60;;;21.10;99.90;;;;;;5029653;28;20021;-59
2021/07/25 10:06:45;;;;;;;33.80;19.00;;;21.00;99.90;;;;;;5028855;28;20037;-60
2021/07/25 10:09:18;;;;;;;38.35;18.58;;;21.00;99.90;;;;;;5029389;28;20072;-59
2021/07/25 10:12:04;;;;;;;31.10;18.55;;;21.00;99.90;;;;;;5030408;28;20029;-60
2021/07/25 10:14:33;;;;;;;33.33;19.80;;;20.90;99.90;;;;;;5046534;28;20502;-60
2021/07/25 10:17:02;;;;;;;37.65;19.90;;;20.90;99.90;;;;;;5029472;28;20699;-61
2021/07/25 10:19:29;;;;;;;36.70;19.70;;;20.80;99.90;;;;;;5028585;28;20076;-60
2021/07/25 10:21:58;;;;;;;40.38;21.63;;;20.80;99.90;;;;;;5028892;28;20495;-60
2021/07/25 10:24:26;;;;;;;37.78;21.13;;;20.80;99.90;;;;;;5028719;28;20471;-61
2021/07/25 10:26:54;;;;;;;33.85;21.45;;;20.70;99.90;;;;;;5030450;28;20080;-60
2021/07/25 10:29:24;;;;;;;43.05;21.75;;;20.70;99.90;;;;;;5028621;28;20041;-62
2021/07/25 10:31:51;;;;;;;39.25;21.02;;;20.70;99.90;;;;;;5032176;28;20029;-59
2021/07/25 10:34:21;;;;;;;42.15;22.50;;;20.70;99.90;;;;;;5033013;28;20094;-59
2021/07/25 10:36:47;;;;;;;38.10;21.15;;;20.70;99.90;;;;;;5034177;28;20029;-60
2021/07/25 10:39:13;;;;;;;41.88;21.17;;;20.60;99.90;;;;;;5036405;28;20539;-59
2021/07/25 10:41:42;;;;;;;41.20;22.60;;;20.60;99.90;;;;;;5033486;28;20037;-60
2021/07/25 10:44:08;;;;;;;45.55;23.95;;;20.70;99.90;;;;;;5032745;28;20032;-59
2021/07/25 10:46:33;;;;;;;36.58;22.05;;;20.70;99.90;;;;;;5033481;28;20403;-60
2021/07/25 10:49:09;;;;;;;36.80;21.67;;;20.70;99.90;;;;;;5032732;28;20037;-60
2021/07/25 10:51:36;;;;;;;39.28;21.98;;;20.70;99.90;;;;;;5033960;28;20029;-60
2021/07/25 10:54:24;;;;;;;39.20;22.42;;;20.80;99.90;;;;;;5034090;28;20038;-60
2021/07/25 10:56:59;;;;;;;41.78;22.60;;;20.70;99.90;;;;;;5033083;28;20038;-60
2021/07/25 10:59:50;;;;;;;36.15;21.80;;;20.70;99.90;;;;;;5032607;28;20093;-59
2021/07/25 11:02:22;;;;;;;39.30;23.20;;;20.70;99.90;;;;;;5032286;28;20033;-59
2021/07/25 11:04:50;;;;;;;40.97;23.08;;;20.60;99.90;;;;;;5033125;28;20404;-60
2021/07/25 11:07:22;;;;;;;40.95;22.63;;;20.60;99.90;;;;;;5032973;28;20032;-59
2021/07/25 11:10:09;;;;;;;41.28;23.73;;;20.70;99.90;;;;;;5032952;28;20064;-60
2021/07/25 11:13:16;;;;;;;43.08;24.50;;;20.70;99.90;;;;;;5021277;28;20087;-60
2021/07/25 11:15:41;;;;;;;49.45;23.50;;;20.80;99.90;;;;;;5024991;28;20503;-60
2021/07/25 11:18:12;;;;;;;44.97;24.55;;;20.80;99.90;;;;;;5031741;28;20049;-60
2021/07/25 11:20:57;;;;;;;40.97;22.80;;;20.90;99.90;;;;;;5031423;28;20152;-60
2021/07/25 11:23:23;;;;;;;44.95;23.58;;;20.90;99.90;;;;;;5031985;28;20057;-60
2021/07/25 11:25:51;;;;;;;40.05;22.40;;;21.00;99.90;;;;;;5033114;28;20049;-59
2021/07/25 11:28:39;;;;;;;40.67;22.40;;;21.00;99.90;;;;;;5032098;28;20041;-60
2021/07/25 11:31:10;;;;;;;37.97;22.13;;;21.10;99.90;;;;;;5020916;28;20388;-60
2021/07/25 11:33:43;;;;;;;39.42;22.35;;;21.10;99.90;;;;;;5032000;28;20037;-59
2021/07/25 11:36:17;;;;;;;39.20;22.38;;;21.20;99.90;;;;;;5031117;28;20467;-60
2021/07/25 11:39:05;;;;;;;39.95;22.15;;;21.30;99.90;;;;;;5032219;28;20446;-60
2021/07/25 11:41:36;;;;;;;40.20;22.85;;;21.50;99.90;;;;;;5032559;28;20037;-59
2021/07/25 11:44:07;;;;;;;38.60;22.17;;;21.60;99.90;;;;;;5031672;28;20037;-60
2021/07/25 11:46:33;;;;;;;35.10;21.45;;;21.70;99.90;;;;;;5032595;28;20034;-60
2021/07/25 11:49:14;;;;;;;38.92;21.67;;;21.80;99.90;;;;;;5031515;28;20091;-60
2021/07/25 11:52:11;;;;;;;33.10;19.55;;;22.00;99.90;;;;;;5032317;28;20052;-60
2021/07/25 11:54:42;;;;;;;29.75;17.55;;;22.10;99.90;;;;;;5029558;28;20042;-60
2021/07/25 11:57:15;;;;;;;36.10;18.48;;;22.20;99.90;;;;;;5032329;28;20463;-61
2021/07/25 11:59:58;;;;;;;33.15;18.67;;;22.40;99.90;;;;;;5031682;28;20029;-59
2021/07/25 12:02:26;;;;;;;34.67;17.60;;;22.60;99.90;;;;;;5032070;28;20025;-60
2021/07/25 12:04:52;;;;;;;34.40;17.63;;;22.60;99.90;;;;;;5038640;28;20514;-60
2021/07/25 12:07:20;;;;;;;30.70;18.00;;;22.80;99.90;;;;;;5032120;28;20022;-60
2021/07/25 12:09:53;;;;;;;32.47;17.60;;;22.90;99.90;;;;;;5031590;28;20025;-60
2021/07/25 12:12:30;;;;;;;39.97;17.38;;;22.80;99.90;;;;;;5029232;28;20140;-60
2021/07/25 12:14:58;;;;;;;32.65;18.77;;;22.90;99.90;;;;;;5025052;28;20483;-60
2021/07/25 12:17:44;;;;;;;26.83;17.25;;;22.80;99.90;;;;;;5031155;28;20025;-60
2021/07/25 12:20:13;;;;;;;28.73;15.98;;;22.90;99.90;;;;;;5031451;28;20434;-62
2021/07/25 12:22:56;;;;;;;31.58;15.68;;;23.00;99.90;;;;;;5031097;28;20702;-60
2021/07/25 12:25:22;;;;;;;27.92;16.52;;;22.90;99.90;;;;;;5031701;28;20478;-61
2021/07/25 12:28:11;;;;;;;27.05;15.40;;;22.90;99.90;;;;;;5031877;28;20100;-61
2021/07/25 12:30:48;;;;;;;28.08;16.90;;;22.80;99.90;;;;;;5031186;28;20025;-60
2021/07/25 12:33:15;;;;;;;25.90;15.95;;;22.60;99.90;;;;;;5025412;28;20137;-61
2021/07/25 12:35:41;;;;;;;27.83;16.60;;;22.60;99.90;;;;;;5031175;28;20276;-60
2021/07/25 12:38:12;;;;;;;27.73;16.20;;;22.60;99.90;;;;;;5031207;28;20032;-61